< < Back
Terminal Aerodrome Forecast


Current Version              Previous Versions:   1  2  3  4  5  6  7  8  9  

Terminal Aerodrome Forecast

403
FTUS42 KGSP 291731
TAFAVL
TAF
KAVL 291731Z 2918/3018 18006KT P6SM FEW090 SCT150 SCT250
     FM300000 00000KT P6SM BKN100 OVC250
     FM301000 00000KT 5SM BR BKN100 OVC200
     FM301300 34006KT P6SM BKN100 OVC150=



Latest METAR

959
SAUS70 KWBC 300600 RRN
MTRAVL
METAR KAVL 300554Z AUTO 00000KT 10SM CLR 19/16 A3022 RMK AO2 SLP207
T01890161 10228 20189 58005


USA.gov is the U.S. government's official web portal to all federal, state and local government web resources and services.